createdAt,value
2023-05-24T00:00:03.363Z,1019.85
2023-05-24T00:05:03.931Z,1019.94
2023-05-24T00:10:02.902Z,1019.95
2023-05-24T00:15:02.981Z,1020.02
2023-05-24T00:20:07.992Z,1019.93
2023-05-24T00:25:02.982Z,1019.91
2023-05-24T00:30:03.645Z,1019.93
2023-05-24T00:35:03.523Z,1019.99
2023-05-24T00:40:03.198Z,1019.98
2023-05-24T00:45:03.415Z,1020.03
2023-05-24T00:50:03.176Z,1020.11
2023-05-24T00:55:03.690Z,1020.06
2023-05-24T01:00:03.862Z,1020.04
2023-05-24T01:05:03.433Z,1020.02
2023-05-24T01:10:03.449Z,1020.04
2023-05-24T01:15:03.799Z,1020.11
2023-05-24T01:20:03.804Z,1020.08
2023-05-24T01:25:03.376Z,1020.07
2023-05-24T01:30:03.090Z,1020.05
2023-05-24T01:35:02.983Z,1020.18
2023-05-24T01:40:03.143Z,1020.18
2023-05-24T01:45:03.014Z,1020.07
2023-05-24T01:50:02.858Z,1020.16
2023-05-24T01:55:04.017Z,1020.07
2023-05-24T02:00:03.383Z,1020.12
2023-05-24T02:05:03.270Z,1020.18
2023-05-24T02:10:03.054Z,1020.06
2023-05-24T02:15:03.851Z,1020.18
2023-05-24T02:20:03.818Z,1020.14
2023-05-24T02:25:03.684Z,1020.11
2023-05-24T02:30:03.532Z,1020.17
2023-05-24T02:35:03.175Z,1020.18
2023-05-24T02:40:02.896Z,1020.15
2023-05-24T02:45:03.761Z,1020.24
2023-05-24T02:50:03.795Z,1020.25
2023-05-24T02:55:03.377Z,1020.14
2023-05-24T03:00:03.376Z,1020.18
2023-05-24T03:05:03.131Z,1020.1
2023-05-24T03:10:02.997Z,1020.1
2023-05-24T03:15:03.082Z,1020.19
2023-05-24T03:20:04.014Z,1020.18
2023-05-24T03:25:03.430Z,1020.19
2023-05-24T03:30:03.356Z,1020.14
2023-05-24T03:35:03.013Z,1020.08
2023-05-24T03:40:03.271Z,1020.15
2023-05-24T03:45:03.054Z,1020.1
2023-05-24T03:50:03.752Z,1020.19
2023-05-24T03:55:03.524Z,1020.19
2023-05-24T04:00:03.189Z,1020.17
2023-05-24T04:05:03.055Z,1020.27
2023-05-24T04:10:03.096Z,1020.24
2023-05-24T04:15:03.005Z,1020.39
2023-05-24T04:20:03.213Z,1020.4
2023-05-24T04:25:03.644Z,1020.49
2023-05-24T04:30:03.149Z,1020.52
2023-05-24T04:35:02.951Z,1020.51
2023-05-24T04:40:03.300Z,1020.53
2023-05-24T04:45:03.173Z,1020.6
2023-05-24T04:50:03.499Z,1020.55
2023-05-24T04:55:03.673Z,1020.66
2023-05-24T05:00:02.953Z,1020.67
2023-05-24T05:05:03.591Z,1020.71
2023-05-24T05:10:03.160Z,1020.82
2023-05-24T05:15:02.970Z,1020.84
2023-05-24T05:20:03.163Z,1020.87
2023-05-24T05:25:03.806Z,1020.93
2023-05-24T05:30:02.956Z,1021.01
2023-05-24T05:35:03.636Z,1020.95
2023-05-24T05:40:03.557Z,1021.05
2023-05-24T05:45:03.372Z,1021.11
2023-05-24T05:50:03.127Z,1021.08
2023-05-24T05:55:03.561Z,1021.12
2023-05-24T06:00:03.872Z,1021.12
2023-05-24T06:05:03.667Z,1021.12
2023-05-24T06:10:03.321Z,1021.14
2023-05-24T06:15:03.224Z,1021.15
2023-05-24T06:20:03.338Z,1021.38
2023-05-24T06:25:03.010Z,1021.35
2023-05-24T06:30:03.852Z,1021.37
2023-05-24T06:35:03.618Z,1021.37
2023-05-24T06:40:03.390Z,1021.35
2023-05-24T06:45:03.201Z,1021.33
2023-05-24T06:50:02.950Z,1021.45
2023-05-24T06:55:03.384Z,1021.36
2023-05-24T07:00:03.916Z,1021.43
2023-05-24T07:05:03.850Z,1021.51
2023-05-24T07:10:03.094Z,1021.53
2023-05-24T07:15:03.095Z,1021.59
2023-05-24T07:20:03.310Z,1021.47
2023-05-24T07:25:03.800Z,1021.7
2023-05-24T07:30:03.658Z,1021.69
2023-05-24T07:35:03.553Z,1021.68
2023-05-24T07:40:03.438Z,1021.66
2023-05-24T07:45:03.545Z,1021.75
2023-05-24T07:50:02.931Z,1021.7
2023-05-24T07:55:03.622Z,1021.66
2023-05-24T08:00:03.545Z,1021.61
2023-05-24T08:05:03.386Z,1021.66
2023-05-24T08:10:03.250Z,1021.71
2023-05-24T08:15:03.046Z,1021.73
2023-05-24T08:20:03.461Z,1021.79
2023-05-24T08:25:03.132Z,1021.84
2023-05-24T08:30:03.724Z,1021.76
2023-05-24T08:35:22.653Z,1021.82
2023-05-24T08:40:03.494Z,1021.83
2023-05-24T08:45:03.598Z,1021.82
2023-05-24T08:50:03.741Z,1021.83
2023-05-24T08:55:03.620Z,1021.82
2023-05-24T09:00:03.277Z,1021.92
2023-05-24T09:05:02.976Z,1021.91
2023-05-24T09:10:03.106Z,1021.97
2023-05-24T09:15:03.431Z,1021.95
2023-05-24T09:20:03.608Z,1022
2023-05-24T09:25:03.001Z,1021.98
2023-05-24T09:30:03.800Z,1022.02
2023-05-24T09:35:03.381Z,1022.06
2023-05-24T09:40:03.107Z,1022.01
2023-05-24T09:45:03.023Z,1021.99
2023-05-24T09:50:03.620Z,1022.06
2023-05-24T09:55:03.614Z,1022.05
2023-05-24T10:00:03.253Z,1022.04
2023-05-24T10:05:03.032Z,1022.05
2023-05-24T10:10:08.103Z,1022.18
2023-05-24T10:15:03.198Z,1022.14
2023-05-24T10:20:03.973Z,1022.14
2023-05-24T10:25:03.589Z,1022.1
2023-05-24T10:30:13.062Z,1022.17
2023-05-24T10:35:03.745Z,1022.22
2023-05-24T10:40:03.602Z,1022.18
2023-05-24T10:45:03.385Z,1022.1
2023-05-24T10:50:03.642Z,1022.16
2023-05-24T10:55:05.687Z,1022.18
2023-05-24T11:00:03.446Z,1022.19
2023-05-24T11:05:03.449Z,1022.24
2023-05-24T11:10:02.949Z,1022.35
2023-05-24T11:15:03.648Z,1022.31
2023-05-24T11:20:03.565Z,1022.3
2023-05-24T11:25:03.060Z,1022.32
2023-05-24T11:30:03.817Z,1022.3
2023-05-24T11:35:03.776Z,1022.18
2023-05-24T11:40:03.587Z,1022.19
2023-05-24T11:45:03.195Z,1022.17
2023-05-24T11:50:03.012Z,1022.16
2023-05-24T11:55:03.100Z,1022.03
2023-05-24T12:00:08.616Z,1022.09
2023-05-24T12:05:03.870Z,1022.07
2023-05-24T12:10:03.477Z,1022.09
2023-05-24T12:15:03.161Z,1022.18
2023-05-24T12:20:03.083Z,1022.07
2023-05-24T12:25:03.617Z,1022.15
2023-05-24T12:30:03.560Z,1022.15
2023-05-24T12:35:03.643Z,1022.17
2023-05-24T12:40:03.184Z,1022.07
2023-05-24T12:45:03.115Z,1022.18
2023-05-24T12:50:03.764Z,1022.17
2023-05-24T12:55:04.223Z,1022.1
2023-05-24T13:00:03.332Z,1022.2
2023-05-24T13:05:03.585Z,1022.19
2023-05-24T13:10:03.555Z,1022.13
2023-05-24T13:15:08.645Z,1022.14
2023-05-24T13:20:03.954Z,1022.05
2023-05-24T13:25:03.408Z,1022.19
2023-05-24T13:30:03.217Z,1022.09
2023-05-24T13:35:05.256Z,1022.07
2023-05-24T13:40:02.910Z,1022.04
2023-05-24T13:45:03.809Z,1022.04
2023-05-24T13:50:03.360Z,1021.97
2023-05-24T13:55:03.973Z,1021.9
2023-05-24T14:00:03.310Z,1022.12
2023-05-24T14:05:51.481Z,1022.08
2023-05-24T14:10:03.790Z,1022.11
2023-05-24T14:15:03.319Z,1022.04
2023-05-24T14:20:03.479Z,1022.08
2023-05-24T14:25:02.955Z,1022.04
2023-05-24T14:30:03.206Z,1022
2023-05-24T14:35:02.778Z,1022.04
2023-05-24T14:40:03.277Z,1021.98
2023-05-24T14:45:03.855Z,1021.9
2023-05-24T14:50:03.572Z,1022.06
2023-05-24T14:55:03.312Z,1022.09
2023-05-24T15:00:03.109Z,1022.05
2023-05-24T15:05:03.127Z,1021.98
2023-05-24T15:10:02.946Z,1022.05
2023-05-24T15:15:03.572Z,1021.96
2023-05-24T15:20:03.800Z,1022
2023-05-24T15:30:03.119Z,1022.01
2023-05-24T15:35:03.268Z,1021.97
2023-05-24T15:40:02.872Z,1022.03
2023-05-24T15:45:03.687Z,1022.02
2023-05-24T15:50:03.370Z,1022
2023-05-24T15:55:03.185Z,1021.95
2023-05-24T16:00:02.780Z,1022.1
2023-05-24T16:05:03.629Z,1022.1
2023-05-24T16:10:03.372Z,1022.17
2023-05-24T16:15:03.184Z,1022.22
2023-05-24T16:20:03.294Z,1022.21
2023-05-24T16:25:02.868Z,1022.24
2023-05-24T16:30:03.536Z,1022.24
2023-05-24T16:35:03.300Z,1022.28
2023-05-24T16:40:03.430Z,1022.31
2023-05-24T16:45:03.423Z,1022.3
2023-05-24T16:50:03.065Z,1022.34
2023-05-24T16:55:03.436Z,1022.32
2023-05-24T17:00:02.796Z,1022.33
2023-05-24T17:05:02.817Z,1022.34
2023-05-24T17:10:03.664Z,1022.34
2023-05-24T17:15:03.546Z,1022.3
2023-05-24T17:20:03.517Z,1022.37
2023-05-24T17:25:02.959Z,1022.38
2023-05-24T17:30:03.668Z,1022.46
2023-05-24T17:35:03.667Z,1022.39
2023-05-24T17:40:03.571Z,1022.4
2023-05-24T17:45:03.508Z,1022.44
2023-05-24T17:50:03.172Z,1022.48
2023-05-24T17:55:03.292Z,1022.54
2023-05-24T18:00:03.021Z,1022.49
2023-05-24T18:05:03.854Z,1022.6
2023-05-24T18:10:03.434Z,1022.57
2023-05-24T18:15:03.219Z,1022.6
2023-05-24T18:20:03.262Z,1022.6
2023-05-24T18:25:03.688Z,1022.65
2023-05-24T18:30:03.639Z,1022.63
2023-05-24T18:35:03.267Z,1022.69
2023-05-24T18:40:03.221Z,1022.78
2023-05-24T18:45:02.799Z,1022.74
2023-05-24T18:50:03.528Z,1022.73
2023-05-24T18:55:03.875Z,1022.79
2023-05-24T19:00:03.512Z,1022.93
2023-05-24T19:05:03.195Z,1022.86
2023-05-24T19:10:03.127Z,1023
2023-05-24T19:15:02.886Z,1023.06
2023-05-24T19:20:04.061Z,1023.08
2023-05-24T19:25:03.599Z,1023.17
2023-05-24T19:30:03.462Z,1023.19
2023-05-24T19:35:03.290Z,1023.26
2023-05-24T19:40:03.490Z,1023.2
2023-05-24T19:45:03.804Z,1023.3
2023-05-24T19:50:03.608Z,1023.38
2023-05-24T19:55:03.126Z,1023.3
2023-05-24T20:00:02.999Z,1023.37
2023-05-24T20:05:03.782Z,1023.43
2023-05-24T20:10:03.518Z,1023.46
2023-05-24T20:15:03.328Z,1023.44
2023-05-24T20:20:03.720Z,1023.45
2023-05-24T20:25:03.008Z,1023.56
2023-05-24T20:30:03.907Z,1023.62
2023-05-24T20:35:03.443Z,1023.63
2023-05-24T20:40:03.167Z,1023.66
2023-05-24T20:45:03.252Z,1023.7
2023-05-24T20:50:03.111Z,1023.75
2023-05-24T20:55:04.145Z,1023.72
2023-05-24T21:00:03.862Z,1023.8
2023-05-24T21:05:03.531Z,1023.82
2023-05-24T21:10:03.350Z,1023.93
2023-05-24T21:15:03.143Z,1023.88
2023-05-24T21:20:03.127Z,1023.93
2023-05-24T21:25:02.936Z,1024.03
2023-05-24T21:30:03.760Z,1023.97
2023-05-24T21:35:03.074Z,1024.08
2023-05-24T21:40:03.573Z,1024.18
2023-05-24T21:45:03.450Z,1024.09
2023-05-24T21:50:02.684Z,1024.22
2023-05-24T21:55:03.446Z,1024.14
2023-05-24T22:00:03.684Z,1024.23
2023-05-24T22:05:03.063Z,1024.11
2023-05-24T22:10:02.824Z,1024.15
2023-05-24T22:15:03.928Z,1024.1
2023-05-24T22:20:03.764Z,1024.19
2023-05-24T22:25:03.415Z,1024.22
2023-05-24T22:30:03.490Z,1024.14
2023-05-24T22:35:02.956Z,1024.15
2023-05-24T22:40:03.636Z,1024.09
2023-05-24T22:45:03.379Z,1024.09
2023-05-24T22:50:03.537Z,1024.05
2023-05-24T22:55:03.434Z,1024.11
2023-05-24T23:00:03.016Z,1024.15
2023-05-24T23:05:03.060Z,1024.22
2023-05-24T23:10:03.117Z,1024.31
2023-05-24T23:15:02.998Z,1024.24
2023-05-24T23:20:03.067Z,1024.24
2023-05-24T23:25:03.584Z,1024.27
2023-05-24T23:30:03.351Z,1024.25
2023-05-24T23:35:03.148Z,1024.21
2023-05-24T23:40:02.952Z,1024.18
2023-05-24T23:45:03.767Z,1024.2
2023-05-24T23:50:03.605Z,1024.15
2023-05-24T23:55:03.480Z,1024.15
